Time;durP1;ratioP1;P1;durP2;ratioP2;P2;SDS_P1;SDS_P2;PMS_P1;PMS_P2;Temp;Humidity;BMP_temperature;BMP_pressure;BME280_temperature;BME280_humidity;BME280_pressure;Samples;Min_cycle;Max_cycle;Signal;HPM_P1;HPM_P2
2023/05/26 09:32:56;;;;;;;8.50;4.47;;;;;;;22.48;40.17;100596.78;1086927;54;20053;-86
2023/05/26 09:34:15;;;;;;;10.53;4.60;;;;;;;22.64;39.50;100584.59;1076080;46;20167;31
2023/05/26 09:36:28;;;;;;;9.90;4.20;;;;;;;23.12;39.14;100588.91;1066920;54;20849;31
2023/05/26 09:40:53;;;;;;;10.10;5.00;;;;;;;22.39;39.97;100592.53;1080983;54;20015;31
2023/05/26 09:44:55;;;;;;;8.32;4.68;;;;;;;22.43;39.69;100594.66;1087449;39;21116;-84
2023/05/26 09:46:02;;;;;;;11.60;5.90;;;;;;;22.46;39.59;100598.00;1087441;47;20007;-85
2023/05/26 09:48:19;;;;;;;9.88;4.20;;;;;;;22.60;39.00;100602.44;1088177;54;20005;-85
2023/05/26 09:49:23;;;;;;;8.20;4.22;;;;;;;22.82;39.07;100594.84;1071275;47;21071;31
2023/05/26 09:50:37;;;;;;;9.05;5.10;;;;;;;22.56;38.79;100599.28;1087540;31;20883;31
2023/05/26 09:51:52;;;;;;;8.35;4.82;;;;;;;22.41;39.66;100595.91;1080155;47;20971;-84
2023/05/26 09:53:14;;;;;;;9.95;4.82;;;;;;;22.41;39.99;100604.09;1075381;46;20405;-85
2023/05/26 09:54:18;;;;;;;8.65;4.45;;;;;;;22.62;39.46;100589.44;1087605;47;20046;-86
2023/05/26 09:57:09;;;;;;;9.38;4.47;;;;;;;22.62;39.38;100596.75;1084815;54;20030;31
2023/05/26 09:59:55;;;;;;;9.63;4.57;;;;;;;22.34;39.49;100586.88;1087104;47;20042;-86
2023/05/26 10:02:22;;;;;;;9.85;4.50;;;;;;;22.77;39.37;100594.63;1068784;54;21262;-86
2023/05/26 10:03:42;;;;;;;9.63;4.50;;;;;;;22.50;39.88;100589.22;1079719;46;20042;-87
2023/05/26 10:06:15;;;;;;;8.93;4.70;;;;;;;22.78;39.23;100590.03;1070747;54;20034;31
2023/05/26 10:07:34;;;;;;;8.95;4.97;;;;;;;22.57;39.29;100583.75;1077851;47;20042;-86
2023/05/26 10:08:40;;;;;;;8.75;3.72;;;;;;;22.68;39.32;100587.72;1068356;54;22262;31
2023/05/26 10:09:50;;;;;;;8.25;4.78;;;;;;;22.74;38.77;100590.44;1076660;47;20935;31
2023/05/26 10:11:06;;;;;;;10.48;5.13;;;;;;;22.78;38.35;100579.94;1074514;47;20300;-86
2023/05/26 10:15:06;;;;;;;8.98;4.78;;;;;;;22.97;38.62;100582.84;1067006;39;20349;31
2023/05/26 10:16:12;;;;;;;10.13;5.15;;;;;;;22.73;38.92;100580.59;1086948;46;20018;31
2023/05/26 10:17:15;;;;;;;9.02;4.10;;;;;;;23.01;38.94;100584.09;1068179;54;20030;31
2023/05/26 10:19:23;;;;;;;7.35;4.00;;;;;;;23.58;38.33;100565.22;1076023;54;20082;31
2023/05/26 10:21:40;;;;;;;7.00;4.00;;;;;;;23.59;38.22;100576.97;1086802;54;20034;-86
2023/05/26 10:22:43;;;;;;;8.18;4.13;;;;;;;23.99;38.04;100568.56;1085689;39;21034;31
2023/05/26 10:23:58;;;;;;;6.75;3.78;;;;;;;24.20;37.14;100570.09;1068199;46;20068;31
2023/05/26 10:25:01;;;;;;;8.70;4.40;;;;;;;24.21;37.33;100563.56;1075486;47;20038;31
2023/05/26 10:26:10;;;;;;;9.82;4.50;;;;;;;24.16;37.50;100568.84;1081215;47;20781;-85
2023/05/26 10:29:32;;;;;;;7.20;4.50;;;;;;;24.30;37.55;100562.22;1071324;54;20047;31
2023/05/26 10:30:39;;;;;;;8.45;4.57;;;;;;;24.10;37.75;100565.09;1083118;47;20018;-86
2023/05/26 10:31:43;;;;;;;7.82;4.30;;;;;;;23.79;38.17;100572.25;1087898;54;20702;-85
2023/05/26 10:34:58;;;;;;;11.95;4.93;;;;;;;23.72;38.35;100568.69;1085489;47;20017;31
2023/05/26 10:36:15;;;;;;;7.60;4.30;;;;;;;24.09;37.65;100560.69;1074753;47;21042;-85
2023/05/26 10:37:20;;;;;;;10.77;4.70;;;;;;;24.10;37.30;100559.63;1082521;47;20050;31
2023/05/26 10:38:24;;;;;;;11.23;4.70;;;;;;;24.09;37.42;100565.34;1080049;54;20057;-86
2023/05/26 10:39:29;;;;;;;9.57;4.95;;;;;;;24.13;37.00;100559.22;1079152;47;21011;-85
2023/05/26 10:40:40;;;;;;;11.07;4.45;;;;;;;24.02;37.24;100557.19;1087921;54;20050;-87
2023/05/26 10:42:51;;;;;;;7.65;4.63;;;;;;;24.01;37.47;100560.97;1073888;54;20039;-86
2023/05/26 10:45:00;;;;;;;8.48;4.78;;;;;;;23.90;37.55;100565.22;1088026;54;20033;-87
2023/05/26 10:48:21;;;;;;;10.32;5.22;;;;;;;23.42;37.54;100569.31;1087514;54;20082;-83
2023/05/26 10:49:23;;;;;;;7.47;4.55;;;;;;;23.80;37.42;100573.06;1087407;47;20034;-87
2023/05/26 10:50:27;;;;;;;8.32;4.28;;;;;;;24.05;36.96;100564.09;1087342;47;20074;-85
2023/05/26 10:51:31;;;;;;;7.88;4.07;;;;;;;24.00;36.73;100559.28;1087525;47;20034;-81
2023/05/26 10:52:51;;;;;;;8.68;4.35;;;;;;;23.89;36.96;100560.00;1086876;47;20378;-85
2023/05/26 10:53:56;;;;;;;7.78;3.60;;;;;;;24.28;36.81;100563.47;1087306;54;20143;-85
2023/05/26 10:54:59;;;;;;;7.78;4.55;;;;;;;24.47;36.38;100558.09;1087225;47;20026;-82
2023/05/26 10:56:05;;;;;;;6.75;3.92;;;;;;;24.47;36.64;100558.09;1086629;47;20026;-83
2023/05/26 10:57:28;;;;;;;8.60;4.35;;;;;;;24.39;36.99;100556.47;1086807;54;20030;-83
2023/05/26 10:58:34;;;;;;;7.15;4.00;;;;;;;24.30;36.86;100561.38;1086582;54;20031;-83
2023/05/26 10:59:38;;;;;;;8.68;4.20;;;;;;;24.33;36.45;100560.94;1086670;54;20034;-82
2023/05/26 11:00:43;;;;;;;6.90;3.78;;;;;;;24.13;36.76;100551.00;1086786;47;20047;-84
2023/05/26 11:01:52;;;;;;;7.95;4.90;;;;;;;23.64;37.56;100566.22;1086856;54;20027;-82
2023/05/26 11:02:53;;;;;;;8.00;4.40;;;;;;;23.35;37.79;100565.75;1086985;47;20023;-81
2023/05/26 11:04:10;;;;;;;10.73;4.65;;;;;;;23.35;38.00;100563.88;1086907;47;20302;-82
2023/05/26 11:05:28;;;;;;;9.40;4.55;;;;;;;23.68;37.43;100562.84;1086800;54;20038;-83
2023/05/26 11:06:36;;;;;;;7.22;4.13;;;;;;;23.78;37.39;100554.19;1087038;54;20070;-83
2023/05/26 11:07:37;;;;;;;7.45;3.95;;;;;;;23.73;37.56;100564.91;1087187;54;20037;-85
2023/05/26 11:08:47;;;;;;;6.30;3.85;;;;;;;23.91;37.63;100555.13;1087190;47;20031;-85
2023/05/26 11:09:58;;;;;;;7.90;4.28;;;;;;;23.81;37.40;100551.00;1087211;47;20026;-82
2023/05/26 11:11:02;;;;;;;7.78;3.67;;;;;;;23.98;37.19;100550.50;1087180;54;20039;-84
2023/05/26 11:12:07;;;;;;;6.70;3.80;;;;;;;24.06;37.46;100546.66;1087929;39;20965;-82
2023/05/26 11:13:09;;;;;;;6.82;3.55;;;;;;;24.02;37.39;100550.91;1087038;47;20023;-82
2023/05/26 11:14:13;;;;;;;9.20;4.78;;;;;;;23.70;37.97;100553.59;1087246;46;20034;-84
2023/05/26 11:15:27;;;;;;;9.20;4.43;;;;;;;23.57;37.99;100555.34;1087310;47;20027;-85
2023/05/26 11:16:36;;;;;;;8.88;4.30;;;;;;;23.40;38.09;100551.44;1087181;46;20030;-83
2023/05/26 11:17:37;;;;;;;7.68;4.32;;;;;;;23.29;38.11;100561.16;1087130;46;20037;-84
2023/05/26 11:18:42;;;;;;;8.38;4.43;;;;;;;22.99;38.51;100564.38;1087110;47;20023;-85
2023/05/26 11:19:56;;;;;;;7.63;3.92;;;;;;;22.81;38.79;100563.19;1087268;46;20027;-85
2023/05/26 11:20:58;;;;;;;9.50;4.55;;;;;;;22.71;38.75;100555.47;1087213;47;20023;-85
2023/05/26 11:22:03;;;;;;;7.85;3.95;;;;;;;23.04;38.08;100561.88;1087638;54;20027;-85
2023/05/26 11:23:04;;;;;;;8.52;4.10;;;;;;;23.20;37.81;100552.38;1087612;46;20023;-86
2023/05/26 11:24:10;;;;;;;6.90;3.63;;;;;;;23.24;38.08;100558.28;1087494;47;20033;-87
2023/05/26 11:25:11;;;;;;;6.05;3.67;;;;;;;23.33;37.92;100546.88;1087295;47;20022;-86
2023/05/26 11:26:17;;;;;;;8.45;3.92;;;;;;;23.39;37.92;100545.19;1087219;47;20037;-84
2023/05/26 11:27:18;;;;;;;6.70;3.63;;;;;;;23.49;37.28;100539.22;1087400;46;20045;-87
2023/05/26 11:28:22;;;;;;;7.40;4.30;;;;;;;23.61;37.16;100544.84;1087468;54;20030;-84
2023/05/26 11:29:26;;;;;;;7.50;4.10;;;;;;;23.56;37.28;100547.38;1087231;47;20023;-83
2023/05/26 11:30:36;;;;;;;7.72;4.22;;;;;;;23.40;37.41;100546.00;1087271;54;20030;-86
2023/05/26 11:31:40;;;;;;;;;;;;;;;23.08;37.88;100552.19;1087432;54;20034;-83
2023/05/26 11:32:47;;;;;;;9.60;4.40;;;;;;;22.90;37.79;100551.00;1087234;54;19969;-84
2023/05/26 11:33:49;;;;;;;6.38;4.07;;;;;;;22.94;37.82;100547.84;1087254;46;20032;-84
2023/05/26 11:34:52;;;;;;;7.57;4.68;;;;;;;22.92;38.43;100549.94;1087231;47;20116;-85
2023/05/26 11:35:53;;;;;;;9.60;5.18;;;;;;;22.86;38.46;100551.66;1087213;54;20041;-82
2023/05/26 11:36:58;;;;;;;9.75;4.43;;;;;;;22.70;38.52;100547.47;1087231;47;20027;-84
2023/05/26 11:37:59;;;;;;;10.38;4.65;;;;;;;22.64;38.66;100543.72;1087337;46;20027;-86
2023/05/26 11:39:04;;;;;;;9.85;4.15;;;;;;;22.52;38.85;100549.00;1087234;47;20026;-85
2023/05/26 11:40:09;;;;;;;7.63;4.00;;;;;;;22.63;39.02;100539.31;1087645;39;20319;-84
2023/05/26 11:41:15;;;;;;;8.93;4.13;;;;;;;22.90;38.36;100540.09;1087256;54;20034;-84
2023/05/26 11:42:19;;;;;;;7.53;4.75;;;;;;;23.07;38.56;100531.44;1087351;54;20042;-87
2023/05/26 11:43:23;;;;;;;10.75;4.35;;;;;;;23.24;37.51;100545.47;1087184;47;20051;-86
2023/05/26 11:44:31;;;;;;;8.98;4.22;;;;;;;23.13;38.24;100538.78;1087215;47;20023;-85
2023/05/26 11:45:34;;;;;;;6.70;4.40;;;;;;;23.06;38.32;100538.78;1087417;46;20052;-85
2023/05/26 11:46:40;;;;;;;6.13;3.83;;;;;;;23.12;37.73;100541.69;1087515;47;20026;-85
2023/05/26 11:47:42;;;;;;;7.60;3.88;;;;;;;23.26;37.74;100543.34;1087100;47;20181;-86
2023/05/26 11:48:46;;;;;;;8.13;4.00;;;;;;;23.21;37.80;100549.47;1087099;47;20027;-85
2023/05/26 11:49:48;;;;;;;8.80;4.25;;;;;;;23.46;37.51;100542.41;1087325;47;20044;-85
2023/05/26 11:50:51;;;;;;;7.32;3.65;;;;;;;23.56;37.27;100531.88;1087149;54;20802;-84
2023/05/26 11:51:56;;;;;;;7.53;3.67;;;;;;;23.50;37.09;100539.03;1087213;47;20038;-85
2023/05/26 11:52:57;;;;;;;8.00;4.32;;;;;;;23.14;37.41;100540.44;1087247;54;20026;-87
2023/05/26 11:54:08;;;;;;;6.93;3.78;;;;;;;23.08;37.64;100545.91;1087408;47;20030;-86
2023/05/26 11:55:13;;;;;;;8.82;4.03;;;;;;;22.98;37.55;100538.19;1087167;46;20078;-86
2023/05/26 11:56:18;;;;;;;6.93;4.10;;;;;;;22.97;37.66;100547.41;1087138;54;20030;-84
2023/05/26 11:57:25;;;;;;;8.52;4.53;;;;;;;23.01;37.34;100540.47;1087226;54;20011;-88
2023/05/26 11:58:29;;;;;;;8.25;4.82;;;;;;;22.85;37.58;100539.91;1087336;46;20030;-87
2023/05/26 11:59:33;;;;;;;7.32;4.20;;;;;;;23.07;37.60;100542.34;1087399;54;20026;-85
2023/05/26 12:00:37;;;;;;;10.07;4.10;;;;;;;22.80;37.52;100549.78;1086995;47;20033;-81
2023/05/26 12:01:41;;;;;;;7.60;3.63;;;;;;;22.67;37.50;100543.31;1091101;39;20786;-83
2023/05/26 12:02:43;;;;;;;9.48;4.25;;;;;;;22.70;37.86;100545.63;1087308;47;20026;-83
2023/05/26 12:03:49;;;;;;;12.85;4.35;;;;;;;22.68;37.84;100533.22;1087295;54;20044;-82
2023/05/26 12:04:50;;;;;;;9.02;4.20;;;;;;;23.03;37.03;100541.94;1087429;46;20051;-83
2023/05/26 12:05:54;;;;;;;6.20;3.47;;;;;;;23.30;36.78;100530.13;1087348;47;20026;-84
2023/05/26 12:06:57;;;;;;;7.88;3.90;;;;;;;23.50;36.48;100528.13;1087283;54;20055;-83
2023/05/26 12:08:02;;;;;;;7.07;3.63;;;;;;;23.67;36.16;100522.97;1087310;54;20056;-86
2023/05/26 12:09:12;;;;;;;8.27;3.97;;;;;;;23.57;35.78;100521.78;1087563;46;20030;-86
2023/05/26 12:10:16;;;;;;;7.53;4.18;;;;;;;23.21;36.59;100529.53;1087274;47;20022;-85
2023/05/26 12:11:22;;;;;;;9.15;4.07;;;;;;;23.29;36.28;100526.53;1087055;54;20106;-85
2023/05/26 12:12:23;;;;;;;6.38;3.85;;;;;;;23.49;36.13;100528.31;1087224;47;20030;-85
2023/05/26 12:13:29;;;;;;;7.18;3.83;;;;;;;23.62;36.05;100532.84;1087108;47;20376;-83
2023/05/26 12:14:40;;;;;;;8.15;4.07;;;;;;;23.63;36.22;100526.34;1087304;47;20027;-84
2023/05/26 12:15:51;;;;;;;6.35;3.28;;;;;;;23.69;35.45;100520.03;1087016;46;20029;-86
2023/05/26 12:16:55;;;;;;;6.32;3.78;;;;;;;23.72;35.66;100525.03;1087595;39;20887;-88
2023/05/26 12:17:58;;;;;;;9.25;4.43;;;;;;;23.68;35.56;100527.38;1086848;47;20055;-88
2023/05/26 12:19:04;;;;;;;7.72;3.92;;;;;;;23.65;35.89;100525.09;1087140;47;20030;-87
2023/05/26 12:20:07;;;;;;;6.85;3.65;;;;;;;23.62;35.71;100530.97;1087216;47;20026;-85
2023/05/26 12:21:12;;;;;;;8.35;4.43;;;;;;;23.42;36.16;100517.47;1086928;47;20031;-87
2023/05/26 12:22:16;;;;;;;7.60;4.03;;;;;;;23.31;36.42;100523.63;1087120;46;20026;-85
2023/05/26 12:23:23;;;;;;;7.65;4.32;;;;;;;23.51;36.33;100523.50;1087280;46;20030;-87
2023/05/26 12:24:34;;;;;;;6.93;3.85;;;;;;;23.68;36.01;100515.63;1087277;47;20083;-83
2023/05/26 12:25:37;;;;;;;7.78;4.22;;;;;;;23.73;35.63;100514.97;1087294;54;20058;-84
2023/05/26 12:26:41;;;;;;;11.05;5.03;;;;;;;23.49;35.99;100526.44;1086995;47;20059;-85
2023/05/26 12:27:42;;;;;;;7.82;4.30;;;;;;;23.32;36.00;100519.84;1086984;47;20023;-84
2023/05/26 12:28:46;;;;;;;8.40;3.90;;;;;;;23.30;36.24;100521.94;1087111;54;20990;-83
2023/05/26 12:29:52;;;;;;;7.85;4.10;;;;;;;23.16;36.23;100527.41;1087218;46;20026;-85
2023/05/26 12:30:55;;;;;;;6.93;4.40;;;;;;;23.40;35.66;100524.19;1088544;39;20391;-86
2023/05/26 12:31:59;;;;;;;7.68;4.32;;;;;;;23.39;35.94;100523.34;1088959;39;20325;-85
2023/05/26 12:33:00;;;;;;;8.82;4.45;;;;;;;23.25;35.95;100519.88;1087009;47;20022;-86
2023/05/26 12:34:03;;;;;;;7.15;3.75;;;;;;;23.43;35.79;100516.38;1087123;54;20035;-85
2023/05/26 12:35:06;;;;;;;7.15;4.10;;;;;;;23.26;36.07;100517.97;1087103;54;20057;-83
2023/05/26 12:36:09;;;;;;;7.72;3.83;;;;;;;23.20;36.30;100516.94;1087083;54;20040;-85
2023/05/26 12:37:11;;;;;;;7.93;3.78;;;;;;;23.44;35.91;100518.06;1087151;54;20030;-84
2023/05/26 12:38:15;;;;;;;8.45;4.38;;;;;;;23.60;35.41;100516.72;1087062;47;20027;-84
2023/05/26 12:39:20;;;;;;;6.68;4.22;;;;;;;23.58;35.58;100512.53;1087329;54;20030;-86
2023/05/26 12:40:24;;;;;;;6.40;3.67;;;;;;;23.58;35.30;100509.81;1087129;47;20022;-84
2023/05/26 12:41:28;;;;;;;6.95;3.92;;;;;;;23.56;35.15;100509.19;1087154;46;20048;-84
2023/05/26 12:42:31;;;;;;;6.65;4.10;;;;;;;23.66;35.51;100509.53;1086975;46;20033;-84
2023/05/26 12:43:32;;;;;;;9.90;4.95;;;;;;;23.58;35.46;100507.09;1087129;54;20027;-83
2023/05/26 12:44:37;;;;;;;6.60;4.05;;;;;;;23.75;35.32;100502.75;1087170;54;20035;-86
2023/05/26 12:45:38;;;;;;;6.30;3.78;;;;;;;23.94;35.50;100508.28;1087781;39;20348;-85
2023/05/26 12:46:44;;;;;;;6.53;3.40;;;;;;;23.93;35.00;100504.75;1087031;47;20052;-85
2023/05/26 12:47:45;;;;;;;6.32;3.67;;;;;;;24.01;34.97;100495.44;1087146;47;20026;-84
2023/05/26 12:48:48;;;;;;;6.93;3.25;;;;;;;24.09;34.75;100502.53;1087198;54;20110;-85
2023/05/26 12:49:52;;;;;;;6.43;3.75;;;;;;;23.81;35.20;100501.88;1087086;54;20067;-82
2023/05/26 12:50:53;;;;;;;11.30;4.07;;;;;;;23.62;35.71;100511.03;1087102;54;20094;-83
2023/05/26 12:51:57;;;;;;;10.30;3.88;;;;;;;23.60;35.58;100513.16;1087160;39;20294;-85
2023/05/26 12:52:59;;;;;;;7.88;4.10;;;;;;;23.41;35.38;100507.63;1087485;39;20977;-84
2023/05/26 12:54:03;;;;;;;7.82;4.28;;;;;;;23.62;35.47;100502.84;1087051;54;20038;-85
2023/05/26 12:55:05;;;;;;;8.73;4.35;;;;;;;23.49;35.63;100504.63;1087107;46;20030;-84
2023/05/26 12:56:08;;;;;;;6.20;3.60;;;;;;;23.62;35.16;100503.69;1087118;54;20030;-85
2023/05/26 12:57:14;;;;;;;8.13;3.97;;;;;;;23.32;35.62;100506.19;1087182;46;20030;-84
2023/05/26 12:58:16;;;;;;;7.47;3.60;;;;;;;23.46;35.87;100498.78;1087135;54;20027;-86
2023/05/26 12:59:19;;;;;;;7.75;4.03;;;;;;;23.66;35.68;100494.00;1087054;47;20042;-86
2023/05/26 13:00:20;;;;;;;7.95;3.70;;;;;;;23.79;35.08;100498.53;1088100;39;20359;-85
2023/05/26 13:01:24;;;;;;;5.68;3.45;;;;;;;23.99;34.89;100494.84;1087293;54;20035;-84
2023/05/26 13:02:25;;;;;;;7.20;3.70;;;;;;;24.09;34.79;100497.06;1087176;54;20027;-84
2023/05/26 13:03:29;;;;;;;9.77;3.72;;;;;;;24.22;34.82;100485.19;1087102;54;20030;-85
2023/05/26 13:04:30;;;;;;;6.68;3.70;;;;;;;24.21;34.92;100488.97;1087089;47;20026;-85
2023/05/26 13:05:34;;;;;;;6.72;4.07;;;;;;;24.22;35.24;100501.56;1087161;54;20052;-85
2023/05/26 13:06:39;;;;;;;6.70;4.00;;;;;;;24.06;34.97;100502.97;1087014;54;20857;-84
2023/05/26 13:07:40;;;;;;;7.68;4.10;;;;;;;24.01;35.19;100494.63;1087226;54;20026;-86
2023/05/26 13:08:43;;;;;;;5.85;3.58;;;;;;;23.97;35.37;100500.53;1087173;54;20038;-87
2023/05/26 13:09:46;;;;;;;6.72;3.92;;;;;;;24.10;35.20;100496.84;1088950;39;20730;-84
2023/05/26 13:10:50;;;;;;;7.15;3.70;;;;;;;24.02;35.17;100502.56;1087957;39;21210;-83
2023/05/26 13:11:51;;;;;;;7.03;3.88;;;;;;;24.11;34.85;100495.78;1086918;47;20055;-85
2023/05/26 13:12:57;;;;;;;7.03;4.13;;;;;;;23.61;35.34;100498.47;1087042;46;20035;-86
2023/05/26 13:14:01;;;;;;;7.03;4.25;;;;;;;23.77;35.33;100495.19;1088974;39;20599;-83
2023/05/26 13:15:03;;;;;;;8.15;4.18;;;;;;;23.59;35.22;100490.47;1087077;46;20889;-83
2023/05/26 13:16:07;;;;;;;7.20;3.58;;;;;;;23.71;35.22;100497.97;1087028;54;20034;-83
2023/05/26 13:17:08;;;;;;;7.72;4.13;;;;;;;23.71;34.83;100490.59;1087234;46;20070;-85
2023/05/26 13:18:12;;;;;;;6.18;3.70;;;;;;;23.89;35.05;100491.75;1087170;54;20031;-83
2023/05/26 13:19:13;;;;;;;7.55;3.95;;;;;;;23.97;34.84;100483.31;1087128;47;20023;-85
2023/05/26 13:20:17;;;;;;;6.50;3.50;;;;;;;24.12;34.79;100489.25;1087209;46;20034;-84
2023/05/26 13:21:21;;;;;;;6.13;3.65;;;;;;;24.22;34.52;100485.19;1086961;54;20055;-84
2023/05/26 13:22:22;;;;;;;7.88;3.67;;;;;;;24.24;34.53;100491.25;1087028;54;20751;-84
2023/05/26 13:23:26;;;;;;;6.85;3.22;;;;;;;24.21;34.44;100488.97;1087181;46;20033;-86
2023/05/26 13:24:29;;;;;;;6.03;3.28;;;;;;;24.14;34.46;100483.56;1087027;47;20022;-84
2023/05/26 13:25:30;;;;;;;7.65;3.58;;;;;;;23.99;34.60;100486.66;1087056;47;20022;-84
2023/05/26 13:26:34;;;;;;;7.45;3.88;;;;;;;24.15;34.68;100496.16;1087053;54;20037;-86
2023/05/26 13:27:35;;;;;;;7.55;3.75;;;;;;;24.32;34.80;100485.50;1087042;47;20105;-83
2023/05/26 13:28:41;;;;;;;9.00;3.40;;;;;;;24.26;34.41;100487.25;1087103;47;20026;-85
2023/05/26 13:29:42;;;;;;;7.30;3.67;;;;;;;24.30;34.60;100477.53;1086901;54;20034;-84
2023/05/26 13:30:46;;;;;;;8.68;3.80;;;;;;;24.23;34.61;100476.75;1086996;54;20037;-83
2023/05/26 13:31:47;;;;;;;6.97;3.65;;;;;;;24.31;34.47;100475.63;1087154;54;20022;-86
2023/05/26 13:32:50;;;;;;;8.95;4.32;;;;;;;24.22;34.65;100485.19;1087143;46;20027;-84
2023/05/26 13:33:52;;;;;;;6.75;3.55;;;;;;;24.36;34.62;100481.28;1086973;54;20030;-84
2023/05/26 13:34:56;;;;;;;8.23;4.05;;;;;;;24.05;34.96;100474.84;1087083;47;20027;-84
2023/05/26 13:35:57;;;;;;;8.52;3.97;;;;;;;23.89;35.36;100478.09;1086969;54;20030;-85
2023/05/26 13:37:01;;;;;;;7.30;3.97;;;;;;;23.95;35.17;100474.50;1087555;39;20823;-83
2023/05/26 13:38:02;;;;;;;7.45;3.95;;;;;;;24.18;34.80;100475.78;1087058;47;20997;-84
2023/05/26 13:39:05;;;;;;;7.22;3.80;;;;;;;24.20;34.90;100479.09;1087014;47;20037;-83
2023/05/26 13:40:09;;;;;;;7.50;4.05;;;;;;;24.27;35.00;100479.91;1087066;54;20811;-85
2023/05/26 13:41:13;;;;;;;5.47;3.25;;;;;;;24.42;34.51;100479.50;1088382;39;21219;-82
2023/05/26 13:42:14;;;;;;;6.45;3.60;;;;;;;24.42;34.62;100474.91;1087045;54;20030;-85
2023/05/26 13:43:18;;;;;;;7.13;4.00;;;;;;;24.35;34.48;100479.59;1087091;46;20031;-86
2023/05/26 13:44:22;;;;;;;7.47;3.92;;;;;;;24.20;34.58;100473.63;1087153;46;20027;-85
2023/05/26 13:45:27;;;;;;;8.15;3.85;;;;;;;24.06;34.90;100471.06;1086963;47;20057;-82
2023/05/26 13:46:28;;;;;;;11.45;4.15;;;;;;;23.94;34.93;100478.25;1086920;54;20030;-84
2023/05/26 13:47:32;;;;;;;5.85;3.40;;;;;;;24.20;34.39;100471.75;1086988;47;20050;-81
2023/05/26 13:48:33;;;;;;;6.90;3.60;;;;;;;24.28;33.97;100476.94;1086446;54;20031;-86
2023/05/26 13:49:37;;;;;;;6.22;3.55;;;;;;;24.46;33.87;100472.53;1086394;54;20038;-84
2023/05/26 13:50:38;;;;;;;5.45;3.20;;;;;;;24.54;33.73;100466.78;1087072;47;20053;-85
2023/05/26 13:51:42;;;;;;;6.70;3.22;;;;;;;24.40;34.05;100477.00;1086883;47;20034;-87
2023/05/26 13:52:43;;;;;;;7.20;3.80;;;;;;;24.38;33.80;100468.19;1086937;47;21243;-83
2023/05/26 13:53:47;;;;;;;5.93;3.60;;;;;;;24.54;33.75;100471.41;1087113;54;20030;-86
2023/05/26 13:54:48;;;;;;;7.45;3.75;;;;;;;24.54;33.34;100463.22;1087259;47;21047;-83
2023/05/26 13:55:53;;;;;;;7.82;4.05;;;;;;;24.58;33.75;100467.16;1087050;47;20030;-84
2023/05/26 13:56:54;;;;;;;10.05;4.50;;;;;;;24.58;33.58;100469.88;1087009;54;20099;-84
2023/05/26 13:57:59;;;;;;;7.40;4.10;;;;;;;24.59;33.20;100475.16;1087127;54;20030;-85
2023/05/26 13:59:00;;;;;;;5.93;3.70;;;;;;;24.68;33.48;100472.97;1087298;47;20027;-85
2023/05/26 14:00:08;;;;;;;7.20;3.88;;;;;;;24.69;33.07;100469.16;1087115;54;20062;-84
2023/05/26 14:01:15;;;;;;;5.53;3.42;;;;;;;24.82;32.77;100467.34;1086946;46;20027;-86
2023/05/26 14:02:19;;;;;;;5.68;3.42;;;;;;;24.64;32.60;100471.72;1087003;54;20031;-85
2023/05/26 14:03:23;;;;;;;7.82;3.47;;;;;;;24.44;33.18;100474.66;1086983;47;20026;-84
2023/05/26 14:04:25;;;;;;;7.43;3.10;;;;;;;24.60;32.92;100467.78;1087050;47;20053;-85
2023/05/26 14:05:29;;;;;;;6.13;3.25;;;;;;;24.63;32.89;100475.53;1086836;47;20042;-83
2023/05/26 14:06:34;;;;;;;8.98;3.53;;;;;;;24.62;33.04;100462.91;1086922;47;20026;-84
2023/05/26 14:07:38;;;;;;;7.97;4.40;;;;;;;24.44;33.55;100464.59;1090363;31;20791;-85
2023/05/26 14:08:39;;;;;;;8.32;3.58;;;;;;;24.29;33.48;100467.69;1086951;46;20026;-86
2023/05/26 14:09:44;;;;;;;6.82;3.13;;;;;;;24.21;33.39;100464.41;1086844;46;20136;-86
2023/05/26 14:10:47;;;;;;;6.93;3.40;;;;;;;24.55;33.32;100473.09;1086954;54;20030;-84
2023/05/26 14:11:48;;;;;;;6.30;3.60;;;;;;;24.72;32.93;100460.50;1087675;46;20100;-87
2023/05/26 14:12:52;;;;;;;5.63;3.30;;;;;;;24.79;32.62;100456.84;1086935;54;20131;-84
2023/05/26 14:13:53;;;;;;;6.03;3.35;;;;;;;24.83;32.34;100461.63;1086952;47;20049;-84
2023/05/26 14:14:57;;;;;;;7.00;3.50;;;;;;;25.22;31.81;100455.88;1086879;47;20426;-86
2023/05/26 14:16:00;;;;;;;6.63;3.40;;;;;;;25.19;31.20;100459.06;1086869;54;20030;-85
2023/05/26 14:17:04;;;;;;;6.82;3.28;;;;;;;25.32;31.17;100456.13;1086821;47;20027;-85
2023/05/26 14:18:08;;;;;;;5.22;3.10;;;;;;;25.83;30.67;100453.06;1087024;46;20053;-83
2023/05/26 14:19:09;;;;;;;6.20;3.58;;;;;;;26.00;30.36;100451.28;1088745;39;21257;-84
2023/05/26 14:20:13;;;;;;;5.85;3.15;;;;;;;26.28;30.11;100451.69;1086800;47;20030;-81
2023/05/26 14:21:14;;;;;;;6.60;3.50;;;;;;;26.03;30.21;100455.44;1086466;47;20049;-82
2023/05/26 14:22:18;;;;;;;6.60;3.55;;;;;;;25.88;30.31;100455.94;1086665;54;20042;-82
2023/05/26 14:23:22;;;;;;;9.25;4.00;;;;;;;25.74;30.56;100440.78;1086629;47;20022;-81
2023/05/26 14:24:23;;;;;;;9.02;3.53;;;;;;;25.87;30.20;100447.94;1086638;46;20057;-81
2023/05/26 14:25:26;;;;;;;7.05;3.50;;;;;;;26.26;29.96;100454.63;1086696;54;20072;-82
2023/05/26 14:26:27;;;;;;;7.45;3.53;;;;;;;26.11;30.28;100457.03;1086605;47;20030;-83
2023/05/26 14:27:32;;;;;;;6.30;3.45;;;;;;;26.21;30.23;100446.31;1086813;47;20027;-82
2023/05/26 14:28:33;;;;;;;6.35;3.67;;;;;;;26.12;30.41;100447.75;1086833;47;20936;-83
2023/05/26 14:29:37;;;;;;;5.50;3.13;;;;;;;26.39;30.20;100444.50;1086835;54;20035;-84
2023/05/26 14:30:38;;;;;;;7.65;3.63;;;;;;;26.51;30.29;100447.22;1086878;54;20035;-82
2023/05/26 14:31:45;;;;;;;6.10;3.47;;;;;;;26.87;29.03;100448.00;1086829;47;20026;-81
2023/05/26 14:32:48;;;;;;;6.97;3.80;;;;;;;27.36;28.79;100450.31;1086953;54;20956;-85
2023/05/26 14:33:49;;;;;;;6.80;3.90;;;;;;;26.86;29.25;100452.66;1086913;47;20263;-83
2023/05/26 14:34:53;;;;;;;7.93;3.63;;;;;;;26.77;29.22;100437.66;1086800;54;20026;-82
2023/05/26 14:35:54;;;;;;;5.35;3.42;;;;;;;26.90;29.02;100447.50;1086941;54;20038;-84
2023/05/26 14:36:58;;;;;;;6.38;3.60;;;;;;;26.91;28.79;100444.53;1086979;47;20091;-83
2023/05/26 14:37:59;;;;;;;7.13;4.45;;;;;;;26.28;28.08;100446.19;1086957;54;20061;-82
2023/05/26 14:39:06;;;;;;;6.57;3.13;;;;;;;26.15;27.99;100441.81;1087799;39;20579;-83
2023/05/26 14:40:11;;;;;;;7.15;3.75;;;;;;;26.19;28.72;100442.16;1086835;54;20034;-81
2023/05/26 14:41:12;;;;;;;7.28;3.63;;;;;;;26.15;28.77;100448.09;1086801;47;20030;-82
2023/05/26 14:42:16;;;;;;;7.30;3.28;;;;;;;26.13;28.91;100441.19;1087277;54;20037;-81
2023/05/26 14:43:17;;;;;;;7.85;3.30;;;;;;;26.14;28.97;100451.91;1087434;46;20051;-82
2023/05/26 14:44:20;;;;;;;6.45;3.80;;;;;;;25.98;29.17;100447.94;1087062;47;20026;-82
2023/05/26 14:45:24;;;;;;;6.25;3.65;;;;;;;25.84;29.27;100452.00;1087182;54;20037;-82
2023/05/26 14:46:25;;;;;;;5.75;3.15;;;;;;;25.82;29.48;100451.38;1087125;47;20027;-82
2023/05/26 14:47:31;;;;;;;6.32;3.42;;;;;;;26.10;29.16;100438.94;1087244;54;20070;-83
2023/05/26 14:48:32;;;;;;;6.15;3.55;;;;;;;26.38;28.99;100448.31;1087352;46;20027;-83
2023/05/26 14:49:37;;;;;;;4.97;2.97;;;;;;;26.70;28.75;100445.97;1087178;47;20070;-83
2023/05/26 14:50:41;;;;;;;5.93;3.35;;;;;;;26.86;28.42;100443.59;1087490;46;20030;-85
2023/05/26 14:51:45;;;;;;;7.53;3.80;;;;;;;26.60;28.89;100440.28;1087233;54;20030;-83
2023/05/26 14:52:49;;;;;;;7.65;3.83;;;;;;;26.52;28.84;100447.00;1087168;54;20057;-83
2023/05/26 14:53:52;;;;;;;9.18;4.57;;;;;;;26.28;29.23;100443.47;1087225;46;20014;-83
2023/05/26 14:54:53;;;;;;;5.88;3.40;;;;;;;26.21;29.24;100449.06;1087054;47;20035;-82
2023/05/26 14:55:58;;;;;;;6.72;3.47;;;;;;;26.08;29.70;100444.63;1087128;47;20033;-82
2023/05/26 14:57:02;;;;;;;6.07;3.10;;;;;;;25.97;29.73;100450.94;1087158;47;20031;-83
2023/05/26 14:58:10;;;;;;;5.97;3.95;;;;;;;26.08;29.74;100443.78;1087154;54;20075;-82
2023/05/26 14:59:16;;;;;;;5.78;2.90;;;;;;;25.75;30.43;100442.47;1087652;39;20609;-83
2023/05/26 15:00:18;;;;;;;8.20;3.58;;;;;;;25.87;30.13;100443.31;1087163;54;20061;-81
2023/05/26 15:01:21;;;;;;;7.13;3.47;;;;;;;25.83;30.13;100439.38;1087153;54;20030;-82